Time;durP1;ratioP1;P1;durP2;ratioP2;P2;SDS_P1;SDS_P2;PMS_P1;PMS_P2;Temp;Humidity;BMP_temperature;BMP_pressure;BME280_temperature;BME280_humidity;BME280_pressure;Samples;Min_cycle;Max_cycle;Signal;HPM_P1;HPM_P2
2024/01/31 00:04:32;;;;;;;5.57;2.67;;;12.90;99.90;;;13.15;54.60;102908.75;5995597;22;98162;-54
2024/01/31 00:06:58;;;;;;;4.73;2.80;;;13.00;99.90;;;13.00;55.73;102913.31;6038051;22;99188;-55
2024/01/31 00:09:24;;;;;;;6.87;3.10;;;12.90;99.90;;;12.84;57.26;102910.84;6011368;22;98760;-53
2024/01/31 00:11:52;;;;;;;6.13;3.13;;;12.70;99.90;;;12.70;57.40;102919.78;6031172;22;98199;-54
2024/01/31 00:14:18;;;;;;;5.53;3.20;;;12.50;99.90;;;12.68;57.69;102910.97;6053030;22;97519;-54
2024/01/31 00:16:45;;;;;;;5.50;2.93;;;12.40;99.90;;;12.89;55.59;102914.34;6053700;22;97605;-54
2024/01/31 00:19:18;;;;;;;7.00;3.40;;;12.60;99.90;;;12.84;56.66;102910.84;5929247;22;99758;-55
2024/01/31 00:21:46;;;;;;;5.70;3.40;;;12.70;99.90;;;12.86;56.28;102914.34;6023769;22;102324;-52
2024/01/31 00:24:12;;;;;;;8.07;3.60;;;12.60;99.90;;;12.96;56.09;102916.00;6038785;22;102688;-48
2024/01/31 00:26:43;;;;;;;6.37;3.70;;;12.70;99.90;;;12.75;57.38;102920.63;6033192;22;98646;-51
2024/01/31 00:29:12;;;;;;;6.23;3.60;;;12.60;99.90;;;12.61;57.96;102925.19;5978164;22;100151;-55
2024/01/31 00:31:41;;;;;;;6.20;3.40;;;12.50;99.90;;;12.77;56.31;102921.50;5940462;22;98758;-54
2024/01/31 00:34:12;;;;;;;8.03;4.47;;;12.50;99.90;;;12.92;55.57;102925.78;6024683;22;97534;-57
2024/01/31 00:36:44;;;;;;;7.80;3.90;;;12.60;99.90;;;12.91;56.26;102923.16;6004706;22;101199;-51
2024/01/31 00:39:10;;;;;;;9.10;3.60;;;12.70;99.90;;;13.02;55.48;102921.28;6099049;22;124336;-55
2024/01/31 00:41:36;;;;;;;6.90;3.97;;;12.80;99.90;;;13.01;55.34;102917.72;6057798;22;100351;-50
2024/01/31 00:44:07;;;;;;;10.87;4.97;;;12.80;99.90;;;13.13;55.15;102907.88;6033036;22;99232;-55
2024/01/31 00:46:33;;;;;;;8.60;4.10;;;12.90;99.90;;;13.14;54.68;102921.13;6048952;22;97487;-53
2024/01/31 00:49:04;;;;;;;8.33;4.23;;;12.80;99.90;;;13.22;54.61;102916.66;6000072;22;101563;-56
2024/01/31 00:51:30;;;;;;;9.33;4.13;;;12.90;99.90;;;13.22;54.71;102916.66;6011757;22;99274;-56
2024/01/31 00:53:56;;;;;;;7.83;4.13;;;13.00;99.90;;;13.07;55.96;102919.44;6053930;22;105279;-50
2024/01/31 00:56:25;;;;;;;8.63;4.43;;;12.90;99.90;;;13.04;56.44;102912.41;6042073;22;102873;-56
2024/01/31 00:58:55;;;;;;;9.50;4.40;;;12.80;99.90;;;13.05;55.38;102916.81;5997107;22;98524;-53
2024/01/31 01:01:24;;;;;;;8.90;4.70;;;12.70;99.90;;;13.06;55.56;102923.00;6082950;22;99426;-53
2024/01/31 01:03:50;;;;;;;7.47;4.83;;;12.80;99.90;;;12.88;56.87;102918.75;6023993;22;97834;-55
2024/01/31 01:06:18;;;;;;;7.87;4.17;;;12.70;99.90;;;12.74;57.44;102921.53;5949809;22;113146;-54
2024/01/31 01:08:47;;;;;;;11.00;4.87;;;12.50;99.90;;;12.59;57.77;102919.00;5935262;22;99682;-54
2024/01/31 01:11:12;;;;;;;6.63;4.10;;;12.30;99.90;;;12.64;57.73;102924.25;5985049;22;97520;-54
2024/01/31 01:13:38;;;;;;;12.50;5.27;;;12.30;99.90;;;12.49;58.58;102930.56;5925957;22;112728;-53
2024/01/31 01:16:04;;;;;;;10.73;4.77;;;12.20;99.90;;;12.39;58.94;102939.44;5928780;22;99199;-53
2024/01/31 01:18:33;;;;;;;5.97;3.70;;;12.20;99.90;;;12.36;59.20;102932.41;6025329;22;99627;-49
2024/01/31 01:21:02;;;;;;;8.57;4.37;;;12.10;99.90;;;12.39;58.68;102934.16;6034038;22;121589;-54
2024/01/31 01:23:31;;;;;;;10.53;5.03;;;12.10;99.90;;;12.40;59.07;102930.63;5979831;22;97214;-52
2024/01/31 01:26:03;;;;;;;8.63;4.17;;;12.10;99.90;;;12.56;57.56;102934.91;5988712;22;98328;-54
2024/01/31 01:28:29;;;;;;;8.20;4.17;;;12.20;99.90;;;12.57;58.00;102934.00;6007100;22;97733;-49
2024/01/31 01:30:58;;;;;;;9.27;4.80;;;12.20;99.90;;;12.67;56.76;102930.41;6062853;22;98195;-53
2024/01/31 01:33:24;;;;;;;11.60;4.93;;;12.30;99.90;;;12.65;58.21;102932.19;6027233;22;98241;-55
2024/01/31 01:35:52;;;;;;;10.20;5.13;;;12.30;99.90;;;12.46;59.07;102930.59;6016796;22;103224;-54
2024/01/31 01:38:24;;;;;;;10.43;4.73;;;12.20;99.90;;;12.40;59.54;102941.19;5951915;22;103510;-56
2024/01/31 01:40:51;;;;;;;8.63;4.57;;;12.10;99.90;;;12.28;60.15;102941.28;5891333;23;103761;-50
2024/01/31 01:43:18;;;;;;;8.20;4.53;;;12.10;99.90;;;12.29;59.89;102933.34;5956395;22;98328;-53
2024/01/31 01:45:48;;;;;;;8.40;4.77;;;12.00;99.90;;;12.38;58.42;102935.94;5993554;22;98042;-48
2024/01/31 01:48:18;;;;;;;13.73;5.10;;;12.00;99.90;;;12.42;58.80;102945.59;6019857;22;99711;-51
2024/01/31 01:50:45;;;;;;;6.97;4.47;;;12.10;99.90;;;12.40;59.21;102946.50;6062452;22;99599;-49
2024/01/31 01:53:11;;;;;;;11.17;5.83;;;12.10;99.90;;;12.34;59.50;102943.91;6096003;22;98749;-52
2024/01/31 01:55:42;;;;;;;10.27;5.87;;;12.10;99.90;;;12.26;59.72;102945.72;6030883;22;97650;-54
2024/01/31 01:58:09;;;;;;;9.47;5.20;;;12.00;99.90;;;12.21;60.13;102943.97;6056541;22;99773;-55
2024/01/31 02:00:35;;;;;;;9.33;4.93;;;12.00;99.90;;;12.28;59.63;102951.88;6026781;22;106572;-46
2024/01/31 02:03:02;;;;;;;10.50;5.43;;;12.00;99.90;;;12.30;58.72;102953.66;6016156;22;97505;-50
2024/01/31 02:05:30;;;;;;;11.40;5.87;;;12.00;99.90;;;12.51;58.00;102950.84;5975551;22;98064;-53
2024/01/31 02:07:55;;;;;;;10.53;5.47;;;12.20;99.90;;;12.54;58.04;102955.22;6041253;22;101477;-54
2024/01/31 02:10:24;;;;;;;10.63;5.90;;;12.20;99.90;;;12.44;58.79;102948.22;6075042;22;113793;-52
2024/01/31 02:12:53;;;;;;;9.23;4.67;;;12.20;99.90;;;12.44;58.36;102949.13;6033925;22;97857;-50
2024/01/31 02:15:20;;;;;;;12.07;5.43;;;12.10;99.90;;;12.48;58.10;102950.88;5975670;22;98217;-55
2024/01/31 02:17:46;;;;;;;9.13;5.33;;;12.10;99.90;;;12.47;58.84;102953.53;5961254;23;102480;-55
2024/01/31 02:20:15;;;;;;;12.60;6.00;;;12.20;99.90;;;12.25;59.70;102946.59;6025775;22;106295;-54
2024/01/31 02:22:47;;;;;;;13.60;5.90;;;12.10;99.90;;;12.30;59.87;102953.66;6009978;22;97712;-55
2024/01/31 02:25:14;;;;;;;12.97;5.57;;;12.00;99.90;;;12.27;59.86;102947.47;6107225;22;97540;-55
2024/01/31 02:27:40;;;;;;;10.77;5.53;;;12.00;99.90;;;12.40;59.36;102957.97;5989630;22;106627;-54
2024/01/31 02:30:07;;;;;;;10.93;5.73;;;12.10;99.90;;;12.22;59.59;102958.09;6098209;22;99948;-52
2024/01/31 02:32:34;;;;;;;11.80;6.23;;;12.00;99.90;;;12.26;59.42;102948.34;6100061;22;97542;-55
2024/01/31 02:35:05;;;;;;;13.50;7.40;;;12.00;99.90;;;12.32;59.18;102965.09;6033463;22;99865;-51
2024/01/31 02:37:30;;;;;;;16.00;7.20;;;12.20;99.90;;;12.16;60.10;102952.84;6098520;22;99647;-53
2024/01/31 02:39:56;;;;;;;15.03;6.73;;;12.00;99.90;;;11.95;61.18;102959.13;6080126;22;111414;-55
2024/01/31 02:42:22;;;;;;;14.17;6.77;;;11.90;99.90;;;11.96;61.41;102955.59;6078567;22;103470;-53
2024/01/31 02:44:48;;;;;;;16.83;7.13;;;11.90;99.90;;;11.74;61.96;102953.91;6091333;22;112447;-55
2024/01/31 02:47:13;;;;;;;13.23;6.77;;;11.70;99.90;;;11.76;62.20;102957.41;6088602;22;98650;-51
2024/01/31 02:49:40;;;;;;;19.27;8.63;;;11.70;99.90;;;11.81;62.24;102960.94;6039299;22;122990;-53
2024/01/31 02:52:06;;;;;;;16.53;7.33;;;11.70;99.90;;;11.77;62.38;102962.69;6043770;22;97325;-52
2024/01/31 02:54:32;;;;;;;15.93;7.67;;;11.60;99.90;;;11.73;63.01;102958.31;6130397;22;97867;-53
2024/01/31 02:57:00;;;;;;;15.50;7.43;;;11.60;99.90;;;11.76;62.31;102957.41;6090307;22;100062;-52
2024/01/31 02:59:28;;;;;;;19.37;7.90;;;11.60;99.90;;;11.68;63.35;102956.56;6066844;22;109439;-53
2024/01/31 03:01:58;;;;;;;12.43;6.70;;;11.50;99.90;;;11.70;62.77;102949.50;6063141;22;116370;-47
2024/01/31 03:04:24;;;;;;;11.53;6.33;;;11.50;99.90;;;11.71;62.80;102957.41;6077895;22;97577;-53
2024/01/31 03:06:50;;;;;;;14.93;6.87;;;11.50;99.90;;;11.73;63.03;102954.78;6096453;22;97880;-51
2024/01/31 03:09:18;;;;;;;14.27;6.70;;;11.50;99.90;;;11.61;63.95;102948.66;6066012;22;120231;-51
2024/01/31 03:11:56;;;;;;;13.63;6.87;;;11.50;99.90;;;11.59;63.66;102955.72;6070541;22;99291;-55
2024/01/31 03:14:25;;;;;;;13.30;6.27;;;11.40;99.90;;;11.52;64.53;102953.97;6073929;22;98003;-54
2024/01/31 03:16:50;;;;;;;15.07;6.90;;;11.40;99.90;;;11.49;65.39;102954.00;6081740;22;113609;-55
2024/01/31 03:19:16;;;;;;;13.57;6.50;;;11.30;99.90;;;11.48;65.54;102956.63;6082389;22;100023;-56
2024/01/31 03:21:44;;;;;;;13.43;6.30;;;11.30;99.90;;;11.43;65.48;102956.66;6119592;22;97789;-56
2024/01/31 03:24:10;;;;;;;20.17;6.47;;;11.30;99.90;;;11.44;65.31;102960.19;6076204;22;97860;-52
2024/01/31 03:26:38;;;;;;;14.40;6.47;;;11.20;99.90;;;11.37;65.36;102961.94;6031827;22;99796;-53
2024/01/31 03:29:04;;;;;;;11.97;5.97;;;11.20;99.90;;;11.37;65.65;102964.59;6024903;22;114695;-48
2024/01/31 03:31:33;;;;;;;14.67;6.43;;;11.20;99.90;;;11.34;65.65;102964.59;6098110;22;98368;-54
2024/01/31 03:33:58;;;;;;;14.07;6.50;;;11.20;99.90;;;11.28;66.30;102964.59;6089073;22;97879;-55
2024/01/31 03:36:25;;;;;;;10.37;5.00;;;11.10;99.90;;;11.23;66.45;102961.97;6098973;22;100494;-48
2024/01/31 03:38:50;;;;;;;11.60;6.00;;;11.10;99.90;;;11.20;66.40;102961.97;6111310;22;98184;-53
2024/01/31 03:41:16;;;;;;;12.13;5.67;;;11.10;99.90;;;11.25;65.88;102965.50;6082522;22;97539;-52
2024/01/31 03:43:43;;;;;;;11.33;5.20;;;11.10;99.90;;;11.25;65.60;102959.31;6101797;22;97564;-53
2024/01/31 03:46:09;;;;;;;11.83;4.93;;;11.10;99.90;;;11.26;65.56;102966.38;6046341;22;98762;-50
2024/01/31 03:48:37;;;;;;;11.83;4.70;;;11.10;99.90;;;11.28;65.58;102972.53;6032223;22;100408;-51
2024/01/31 03:51:04;;;;;;;11.93;5.17;;;11.10;99.90;;;11.32;65.31;102967.25;6033374;22;97432;-48
2024/01/31 03:53:29;;;;;;;9.10;4.47;;;11.20;99.90;;;11.32;65.55;102971.66;6074362;22;107656;-54
2024/01/31 03:55:55;;;;;;;12.17;5.00;;;11.20;99.90;;;11.29;66.09;102971.66;6086626;22;99306;-51
2024/01/31 03:58:24;;;;;;;9.57;4.63;;;11.10;99.90;;;11.27;66.03;102968.13;6119515;22;98130;-53
2024/01/31 04:00:50;;;;;;;10.97;4.80;;;11.10;99.90;;;11.20;66.20;102976.97;6070252;22;98008;-55
2024/01/31 04:03:20;;;;;;;8.30;4.47;;;11.00;99.90;;;11.14;66.98;102972.59;6070504;22;97729;-52
2024/01/31 04:05:46;;;;;;;12.23;4.70;;;11.00;99.90;;;11.19;66.19;102980.47;6114410;22;99453;-53
2024/01/31 04:08:12;;;;;;;14.00;4.17;;;11.00;99.90;;;11.19;66.21;102975.19;6113526;22;100339;-52
2024/01/31 04:10:38;;;;;;;7.93;3.83;;;11.00;99.90;;;11.25;65.91;102969.91;6016091;22;101856;-51
2024/01/31 04:13:04;;;;;;;9.70;4.03;;;11.10;99.90;;;11.25;66.13;102972.53;5997148;22;105439;-53
2024/01/31 04:15:29;;;;;;;11.80;4.73;;;11.10;99.90;;;11.24;66.17;102973.41;6044927;22;104514;-49
2024/01/31 04:17:57;;;;;;;9.10;3.90;;;11.10;99.90;;;11.21;65.58;102969.03;6085766;22;97530;-50
2024/01/31 04:20:22;;;;;;;9.80;4.00;;;11.00;99.90;;;11.22;65.91;102954.06;6070834;22;97527;-47
2024/01/31 04:22:48;;;;;;;12.57;4.27;;;11.00;99.90;;;11.17;66.05;102951.44;6103383;22;99813;-54
2024/01/31 04:25:15;;;;;;;10.83;4.10;;;11.00;99.90;;;11.17;66.10;102950.56;6017242;22;126242;-54
2024/01/31 04:27:43;;;;;;;7.53;4.20;;;11.00;99.90;;;11.14;66.04;102954.09;6026151;22;103561;-54
2024/01/31 04:30:11;;;;;;;12.40;4.17;;;11.00;99.90;;;11.10;66.31;102939.09;6033350;22;97978;-54
2024/01/31 04:32:37;;;;;;;8.93;3.70;;;10.90;99.90;;;11.09;66.10;102941.75;6093706;22;97426;-54
2024/01/31 04:35:08;;;;;;;9.87;4.23;;;10.90;99.90;;;11.06;66.62;102936.47;6076819;22;98003;-51
2024/01/31 04:37:34;;;;;;;9.03;4.30;;;10.90;99.90;;;11.03;66.00;102927.69;6050238;22;97448;-52
2024/01/31 04:40:04;;;;;;;12.43;5.30;;;10.90;99.90;;;11.01;66.42;102924.16;6107300;22;97634;-55
2024/01/31 04:42:32;;;;;;;11.03;4.60;;;10.90;99.90;;;11.02;66.26;102915.34;6109568;22;107059;-54
2024/01/31 04:44:58;;;;;;;11.27;4.77;;;10.80;99.90;;;11.02;66.27;102912.72;6109547;22;118549;-49
2024/01/31 04:47:29;;;;;;;13.93;5.30;;;10.90;99.90;;;11.05;65.54;102918.88;6114067;22;127938;-54
2024/01/31 04:49:56;;;;;;;12.83;4.97;;;10.90;99.90;;;11.07;65.50;102922.38;6059446;22;107904;-50
2024/01/31 05:06:29;;;;;;;6.67;4.03;;;11.10;99.90;;;11.40;62.92;102930.22;5945594;22;98488;-53
2024/01/31 05:09:01;;;;;;;8.77;4.27;;;11.10;99.90;;;11.39;62.67;102925.81;5982446;22;101654;-53
2024/01/31 05:11:26;;;;;;;10.30;4.83;;;11.20;99.90;;;11.37;62.62;102926.72;6049964;22;97606;-55
2024/01/31 05:14:05;;;;;;;9.93;5.23;;;11.10;99.90;;;11.33;63.32;102931.13;5906702;23;116822;-52
2024/01/31 05:16:38;;;;;;;6.93;3.87;;;11.10;99.90;;;11.35;63.36;102934.66;5946531;22;120284;-55
2024/01/31 05:19:13;;;;;;;8.87;4.57;;;11.10;99.90;;;11.60;62.33;102931.03;6058576;22;99168;-53
2024/01/31 05:21:50;;;;;;;9.13;4.43;;;11.30;99.90;;;11.71;61.76;102943.31;6078848;22;100373;-53
2024/01/31 05:24:50;;;;;;;8.67;4.63;;;11.30;99.90;;;11.72;61.93;102945.09;5916969;22;98670;-52
2024/01/31 05:27:16;;;;;;;10.70;4.53;;;11.40;99.90;;;11.60;62.63;102941.63;5876765;22;131968;-54
2024/01/31 05:29:45;;;;;;;10.03;4.90;;;11.30;99.90;;;11.51;63.38;102931.06;6014939;22;121055;-51
2024/01/31 05:32:21;;;;;;;8.70;3.77;;;11.20;99.90;;;11.62;62.14;102934.56;6078335;22;117468;-56
2024/01/31 05:34:53;;;;;;;9.83;4.10;;;11.20;99.90;;;11.53;62.72;102934.59;5997174;22;115793;-52
2024/01/31 05:37:19;;;;;;;10.87;4.40;;;11.20;99.90;;;11.44;63.22;102932.00;6076646;22;100123;-51
2024/01/31 05:39:44;;;;;;;10.60;3.87;;;11.10;99.90;;;11.34;64.06;102935.53;6020923;22;125356;-55
2024/01/31 05:42:10;;;;;;;8.23;4.37;;;11.10;99.90;;;11.27;64.16;102944.34;6053505;22;97192;-49
2024/01/31 05:44:37;;;;;;;9.00;3.40;;;11.00;99.90;;;11.20;64.58;102939.97;6040790;22;111029;-52
2024/01/31 05:47:15;;;;;;;8.87;4.30;;;10.90;99.90;;;11.16;65.10;102938.22;6039368;22;100471;-55
2024/01/31 05:49:41;;;;;;;7.50;3.73;;;10.90;99.90;;;11.06;65.20;102936.47;5935435;22;97730;-54
2024/01/31 05:52:16;;;;;;;11.90;4.10;;;10.80;99.90;;;10.99;65.43;102944.41;5963460;23;98435;-56
2024/01/31 05:54:50;;;;;;;8.13;3.27;;;10.80;99.90;;;11.05;65.06;102950.56;6076998;22;116226;-54
2024/01/31 05:57:16;;;;;;;7.73;4.23;;;10.80;99.90;;;11.07;64.42;102959.38;6043030;22;98480;-48
2024/01/31 05:59:42;;;;;;;12.00;3.50;;;10.90;99.90;;;11.15;64.33;102949.69;5998782;22;125388;-54
2024/01/31 06:02:12;;;;;;;10.03;3.40;;;10.90;99.90;;;11.14;64.23;102948.81;6062397;22;97547;-55
2024/01/31 06:04:40;;;;;;;5.80;3.27;;;10.90;99.90;;;11.19;63.92;102943.50;6027571;22;114527;-53
2024/01/31 06:07:12;;;;;;;8.00;3.33;;;10.90;99.90;;;11.19;63.71;102943.50;5990485;22;104703;-55
2024/01/31 06:09:43;;;;;;;7.23;2.90;;;11.00;99.90;;;11.30;63.10;102947.00;5995764;23;97427;-53
2024/01/31 06:12:15;;;;;;;12.73;3.67;;;11.00;99.90;;;11.27;62.88;102939.06;5997433;22;118257;-51
2024/01/31 06:15:13;;;;;;;7.97;3.23;;;11.00;99.90;;;11.25;63.10;102949.63;5960474;22;97872;-53
2024/01/31 06:17:43;;;;;;;8.37;3.40;;;11.00;99.90;;;11.20;62.93;102947.91;5989586;22;104015;-56
2024/01/31 06:20:22;;;;;;;5.53;2.90;;;11.00;99.90;;;10.99;64.17;102955.00;5983761;22;100005;-52
2024/01/31 06:22:48;;;;;;;10.43;4.63;;;10.80;99.90;;;10.98;64.17;102950.56;5861347;22;110411;-53
2024/01/31 06:25:35;;;;;;;9.80;3.90;;;10.80;99.90;;;10.97;64.77;102948.81;6022526;22;97636;-51
2024/01/31 06:28:23;;;;;;;7.30;3.00;;;10.80;99.90;;;11.06;64.24;102954.97;5968466;22;128899;-50
2024/01/31 06:31:24;;;;;;;6.00;3.03;;;10.80;99.90;;;11.05;63.70;102953.22;5900979;22;101737;-53
2024/01/31 06:33:50;;;;;;;8.43;3.53;;;10.80;99.90;;;11.08;64.09;102955.84;5948379;22;101034;-55
2024/01/31 06:36:19;;;;;;;8.63;3.43;;;10.90;99.90;;;11.05;63.89;102950.56;5994779;22;98015;-52
2024/01/31 06:38:49;;;;;;;5.90;3.03;;;10.90;99.90;;;11.01;64.18;102950.56;6020201;22;100096;-52
2024/01/31 06:41:30;;;;;;;6.30;3.00;;;10.80;99.90;;;10.98;64.74;102944.41;5883142;23;99175;-52
2024/01/31 06:44:00;;;;;;;6.23;3.23;;;10.70;99.90;;;10.98;65.29;102947.91;5995136;22;102430;-52
2024/01/31 06:46:26;;;;;;;9.47;3.43;;;10.70;99.90;;;10.96;65.00;102949.69;5976324;22;102131;-54
2024/01/31 06:49:08;;;;;;;9.67;3.77;;;10.80;99.90;;;10.97;65.04;102951.44;6045183;22;127032;-56
2024/01/31 06:51:33;;;;;;;9.13;4.03;;;10.70;99.90;;;10.96;65.27;102952.31;5846180;23;102017;-54
2024/01/31 06:53:59;;;;;;;10.43;4.03;;;10.70;99.90;;;10.99;65.30;102962.91;5955531;22;101560;-54
2024/01/31 06:56:31;;;;;;;7.07;3.93;;;10.70;99.90;;;10.95;65.28;102955.84;5972521;22;105591;-54
2024/01/31 06:59:08;;;;;;;8.87;3.50;;;10.70;99.90;;;10.94;65.38;102946.16;5943785;23;98039;-51
2024/01/31 07:01:34;;;;;;;8.17;3.17;;;10.70;99.90;;;10.93;65.30;102947.06;5983183;22;105477;-56
2024/01/31 07:04:12;;;;;;;6.90;3.53;;;10.70;99.90;;;10.96;65.56;102944.41;6014106;22;97303;-54
2024/01/31 07:06:43;;;;;;;6.63;3.33;;;10.70;99.90;;;11.07;65.22;102948.81;5894622;23;99038;-53
2024/01/31 07:09:09;;;;;;;8.97;4.20;;;10.80;99.90;;;11.05;65.41;102950.56;6036889;22;100379;-56
2024/01/31 07:11:35;;;;;;;9.63;4.03;;;10.80;99.90;;;11.00;64.95;102947.94;6016509;23;99985;-51
2024/01/31 07:14:21;;;;;;;6.80;3.67;;;10.80;99.90;;;10.97;64.89;102948.81;6063277;22;117479;-56
2024/01/31 07:17:15;;;;;;;7.80;3.47;;;10.70;99.90;;;10.95;65.53;102961.13;6014937;22;99687;-56
2024/01/31 07:19:42;;;;;;;8.77;3.77;;;10.70;99.90;;;10.94;65.30;102959.38;5997543;22;102331;-55
2024/01/31 07:22:26;;;;;;;11.57;3.83;;;10.70;99.90;;;10.95;65.53;102960.25;5975055;22;102881;-54
2024/01/31 07:25:13;;;;;;;8.17;3.83;;;10.70;99.90;;;10.94;65.26;102948.81;5929832;22;97975;-56
2024/01/31 07:27:56;;;;;;;8.07;3.40;;;10.70;99.90;;;10.91;65.63;102953.22;6050741;22;100468;-54
2024/01/31 07:30:22;;;;;;;7.70;3.80;;;10.70;99.90;;;10.86;65.76;102950.59;6003105;22;102519;-56
2024/01/31 07:32:47;;;;;;;9.67;3.30;;;10.60;99.90;;;10.82;65.88;102954.09;5860071;22;127711;-52
2024/01/31 07:35:24;;;;;;;8.10;3.87;;;10.60;99.90;;;10.75;66.13;102951.47;5874069;22;117257;-55
2024/01/31 07:37:58;;;;;;;7.20;3.50;;;10.50;99.90;;;10.58;66.30;102956.75;5903115;22;98128;-53
2024/01/31 07:40:23;;;;;;;4.37;1.90;;;10.50;99.90;;;11.21;63.17;102957.59;5926673;22;101592;-55
2024/01/31 07:42:50;;;;;;;9.13;3.80;;;10.80;99.90;;;11.09;65.11;102954.97;6008001;22;126409;-54
2024/01/31 07:45:28;;;;;;;12.40;4.67;;;10.90;99.90;;;11.06;64.66;102957.59;5985824;22;97677;-54
2024/01/31 07:48:04;;;;;;;17.27;4.67;;;10.80;99.90;;;11.20;64.15;102953.19;5924185;22;97526;-57
2024/01/31 07:50:30;;;;;;;8.90;4.83;;;10.90;99.90;;;11.22;63.81;102948.78;6026614;22;97895;-52
2024/01/31 07:52:55;;;;;;;12.33;4.80;;;10.90;99.90;;;11.20;64.15;102945.25;5978500;23;99060;-51
2024/01/31 07:56:03;;;;;;;10.97;4.13;;;11.00;99.90;;;11.19;63.94;102948.78;5789937;22;100296;-53
2024/01/31 07:58:41;;;;;;;8.80;4.30;;;10.90;99.90;;;11.13;64.85;102944.38;5787510;22;97764;-55
2024/01/31 08:01:37;;;;;;;11.03;4.80;;;10.90;99.90;;;11.16;64.91;102940.88;5805115;23;119048;-56
2024/01/31 08:04:05;;;;;;;11.30;5.17;;;10.90;99.90;;;11.07;65.57;102954.09;5784407;23;126563;-55
2024/01/31 08:06:35;;;;;;;12.10;5.33;;;10.80;99.90;;;11.40;63.26;102948.72;5766086;23;98459;-55
2024/01/31 08:09:10;;;;;;;11.83;5.70;;;11.00;99.90;;;11.30;64.20;102952.28;5981329;22;100187;-54
2024/01/31 08:12:08;;;;;;;11.53;5.73;;;11.00;99.90;;;11.27;63.92;102949.63;5752494;22;104351;-52
2024/01/31 08:14:58;;;;;;;12.17;5.30;;;11.00;99.90;;;11.31;63.60;102954.03;5744220;22;104536;-55
2024/01/31 08:17:32;;;;;;;11.37;5.13;;;11.10;99.90;;;11.30;63.76;102957.56;5802572;22;99177;-55
2024/01/31 08:20:23;;;;;;;12.60;5.97;;;11.10;99.90;;;11.37;63.55;102959.31;5718482;22;117538;-54
2024/01/31 08:23:14;;;;;;;12.57;5.27;;;11.10;99.90;;;11.42;63.53;102941.66;5782666;22;103845;-52
2024/01/31 08:25:40;;;;;;;11.60;5.47;;;11.10;99.90;;;11.34;64.31;102959.31;5758846;23;99811;-50
2024/01/31 08:28:30;;;;;;;15.17;6.43;;;11.10;99.90;;;11.29;64.16;102967.25;5857021;23;100990;-52
2024/01/31 08:31:02;;;;;;;14.57;6.07;;;11.10;99.90;;;11.29;63.97;102980.47;5956556;22;99641;-55
2024/01/31 08:33:28;;;;;;;11.37;5.43;;;11.10;99.90;;;11.24;64.57;102978.72;5747665;22;99577;-57
2024/01/31 08:36:11;;;;;;;15.90;5.83;;;11.00;99.90;;;11.23;65.23;102987.50;5787903;22;126165;-55
2024/01/31 08:38:45;;;;;;;13.93;5.97;;;11.00;99.90;;;11.21;65.28;102978.72;5823048;22;120756;-57
2024/01/31 08:41:20;;;;;;;11.50;6.00;;;11.00;99.90;;;11.23;64.61;102987.50;5838643;22;100568;-53
2024/01/31 08:43:47;;;;;;;11.17;5.63;;;11.00;99.90;;;11.37;64.05;102988.38;5862874;23;99724;-53
2024/01/31 08:46:28;;;;;;;12.07;6.07;;;11.10;99.90;;;11.38;63.37;102982.19;5858614;22;104776;-54
2024/01/31 08:49:05;;;;;;;10.97;5.67;;;11.20;99.90;;;11.35;64.50;102992.78;5785582;22;97546;-55
2024/01/31 08:52:22;;;;;;;11.13;5.20;;;11.10;99.90;;;11.35;64.86;102987.50;5629366;22;97555;-54
2024/01/31 08:54:57;;;;;;;13.20;5.40;;;11.10;99.90;;;11.32;64.99;102996.31;5747889;22;106493;-53
2024/01/31 08:57:36;;;;;;;11.97;5.53;;;11.10;99.90;;;11.30;65.61;102995.44;5848707;22;119938;-57
2024/01/31 09:00:06;;;;;;;12.30;4.87;;;11.10;99.90;;;11.30;65.46;103007.78;5834004;22;107951;-55
2024/01/31 09:02:36;;;;;;;10.00;4.63;;;11.10;99.90;;;11.33;65.58;103007.78;5822543;22;98011;-53
2024/01/31 09:05:13;;;;;;;10.83;5.17;;;11.10;99.90;;;11.33;65.21;103020.97;5871032;22;105446;-48
2024/01/31 09:07:59;;;;;;;10.63;5.53;;;11.10;99.90;;;11.32;64.95;103021.88;5874870;23;99534;-53
2024/01/31 09:10:26;;;;;;;16.20;5.53;;;11.10;99.90;;;11.54;62.91;103027.97;5827798;22;98089;-56
2024/01/31 09:12:59;;;;;;;12.37;6.10;;;11.20;99.90;;;11.45;63.61;103025.38;5843408;22;100087;-56
2024/01/31 09:15:30;;;;;;;13.43;6.03;;;11.20;99.90;;;11.38;64.86;103035.06;5728043;23;103030;-50
2024/01/31 09:18:08;;;;;;;12.20;5.43;;;11.10;99.90;;;11.41;64.50;103021.84;5689582;23;130223;-53
2024/01/31 09:20:38;;;;;;;11.03;5.63;;;11.10;99.90;;;11.60;63.57;103020.06;5866470;22;98107;-51
2024/01/31 09:23:12;;;;;;;12.10;5.60;;;11.30;99.90;;;11.46;64.50;103027.13;5809344;22;99533;-55
2024/01/31 09:26:19;;;;;;;12.07;5.60;;;11.20;99.90;;;11.41;64.43;103032.41;5788844;22;126829;-56
2024/01/31 09:28:58;;;;;;;12.90;5.70;;;11.20;99.90;;;11.41;63.75;103027.13;5728219;22;103115;-49
2024/01/31 09:31:43;;;;;;;10.33;5.53;;;11.20;99.90;;;11.39;64.70;103020.97;5835474;22;97935;-53
2024/01/31 09:34:19;;;;;;;12.93;5.63;;;11.20;99.90;;;11.35;64.41;103019.22;5906598;22;97784;-55
2024/01/31 09:37:03;;;;;;;16.87;5.90;;;11.10;99.90;;;11.49;64.10;103017.44;5774550;22;103446;-53
2024/01/31 09:39:40;;;;;;;9.50;5.70;;;11.20;99.90;;;11.56;63.63;103013.00;5953326;22;101191;-54
2024/01/31 09:42:21;;;;;;;18.23;5.73;;;11.20;99.90;;;11.56;63.98;103011.22;5880820;22;100252;-51
2024/01/31 09:45:12;;;;;;;13.73;5.47;;;11.30;99.90;;;11.70;63.24;103010.31;5721517;22;97935;-54
2024/01/31 09:48:10;;;;;;;11.60;6.23;;;11.30;99.90;;;11.61;63.60;103009.47;5832392;22;102254;-53
2024/01/31 09:51:03;;;;;;;12.33;6.00;;;11.30;99.90;;;11.47;63.86;103008.63;5901991;22;104591;-52
2024/01/31 09:53:46;;;;;;;11.10;5.23;;;11.20;99.90;;;11.39;64.54;103005.09;5946400;22;99628;-55
2024/01/31 09:56:41;;;;;;;10.50;5.43;;;11.10;99.90;;;11.32;64.30;102998.09;5769875;23;100529;-52
2024/01/31 09:59:23;;;;;;;8.57;4.73;;;11.10;99.90;;;11.29;65.27;102992.81;5759337;22;103295;-54
2024/01/31 10:02:05;;;;;;;14.07;10.10;;;11.10;99.90;;;11.23;65.22;102982.22;5881562;22;101037;-55
2024/01/31 10:05:14;;;;;;;11.37;6.03;;;11.00;99.90;;;11.23;65.57;102984.88;5701704;22;100934;-51
2024/01/31 10:07:43;;;;;;;16.13;5.43;;;11.00;99.90;;;11.20;65.39;102982.25;5781791;23;97994;-53
2024/01/31 10:10:25;;;;;;;10.33;5.00;;;11.00;99.90;;;11.19;65.89;102976.09;5941724;22;104135;-54
2024/01/31 10:13:03;;;;;;;12.43;5.77;;;11.00;99.90;;;11.19;65.75;102980.47;5783869;22;107453;-53
2024/01/31 10:15:33;;;;;;;13.80;6.10;;;11.00;99.90;;;11.17;66.33;102983.13;5812322;22;100807;-54
2024/01/31 10:18:27;;;;;;;27.83;6.73;;;11.00;99.90;;;11.22;66.01;102975.19;5734003;23;125191;-53
2024/01/31 10:21:16;;;;;;;14.73;7.17;;;11.00;99.90;;;11.27;65.33;102970.75;5711371;22;105215;-50
2024/01/31 10:24:17;;;;;;;15.07;6.63;;;11.10;99.90;;;11.32;65.53;102972.53;5777775;22;101592;-55
2024/01/31 10:27:14;;;;;;;14.83;6.93;;;11.10;99.90;;;11.33;65.57;102968.13;5778734;22;98291;-56
2024/01/31 10:29:41;;;;;;;13.40;5.80;;;11.20;99.90;;;11.36;66.23;102968.13;5749117;22;99895;-53
2024/01/31 10:32:35;;;;;;;17.03;6.80;;;11.20;99.90;;;11.55;65.08;102953.97;5897506;22;109845;-55
2024/01/31 10:35:56;;;;;;;14.77;7.67;;;11.30;99.90;;;11.50;65.41;102954.88;5788457;22;101094;-55
2024/01/31 10:38:28;;;;;;;12.60;6.73;;;11.30;99.90;;;11.46;64.97;102948.72;5963614;22;98074;-55
2024/01/31 10:41:15;;;;;;;18.73;7.70;;;11.30;99.90;;;11.50;64.66;102950.47;5757112;22;99746;-55
2024/01/31 10:44:03;;;;;;;13.90;6.73;;;11.30;99.90;;;11.51;64.45;102946.06;5774276;22;102575;-51
2024/01/31 10:46:29;;;;;;;16.30;7.30;;;11.30;99.90;;;11.50;64.51;102939.88;5808994;22;105379;-52